createdAt,value
2023-01-19T00:00:30.306Z,95486.09
2023-01-19T00:02:56.739Z,95492.44
2023-01-19T00:05:23.091Z,95489.59
2023-01-19T00:07:49.419Z,95493.94
2023-01-19T00:10:16.209Z,95490.31
2023-01-19T00:12:42.607Z,95491.41
2023-01-19T00:15:09.493Z,95489.53
2023-01-19T00:17:35.914Z,95489.44
2023-01-19T00:20:03.763Z,95492.16
2023-01-19T00:22:30.101Z,95491.63
2023-01-19T00:24:56.485Z,95494.31
2023-01-19T00:27:22.810Z,95507.63
2023-01-19T00:29:49.342Z,95499.09
2023-01-19T00:32:17.700Z,95508.97
2023-01-19T00:34:49.320Z,95506.41
2023-01-19T00:37:17.165Z,95504.91
2023-01-19T00:39:43.781Z,95502.88
2023-01-19T00:42:31.680Z,95511.06
2023-01-19T00:44:58.193Z,95502.69
2023-01-19T00:47:24.520Z,95496.69
2023-01-19T00:49:50.844Z,95504.53
2023-01-19T00:52:17.182Z,95499.22
2023-01-19T00:54:43.550Z,95498.16
2023-01-19T00:57:09.890Z,95498.50
2023-01-19T00:59:36.226Z,95500.78
2023-01-19T01:02:02.914Z,95510.91
2023-01-19T01:04:29.888Z,95507.38
2023-01-19T01:06:56.217Z,95509.22
2023-01-19T01:09:23.453Z,95506.00
2023-01-19T01:11:49.826Z,95503.47
2023-01-19T01:14:18.004Z,95503.97
2023-01-19T01:16:44.619Z,95509.31
2023-01-19T01:19:11.135Z,95509.16
2023-01-19T01:21:37.481Z,95501.47
2023-01-19T01:24:04.231Z,95512.13
2023-01-19T01:26:30.553Z,95504.41
2023-01-19T01:28:56.900Z,95512.81
2023-01-19T01:31:23.247Z,95507.31
2023-01-19T01:33:49.767Z,95513.47
2023-01-19T01:36:16.571Z,95512.63
2023-01-19T01:38:43.140Z,95514.31
2023-01-19T01:41:09.661Z,95513.28
2023-01-19T01:44:06.177Z,95514.94
2023-01-19T01:46:32.716Z,95517.00
2023-01-19T01:49:16.051Z,95511.72
2023-01-19T01:51:47.156Z,95514.31
2023-01-19T01:54:27.901Z,95517.69
2023-01-19T01:56:59.508Z,95516.25
2023-01-19T01:59:38.970Z,95519.03
2023-01-19T02:02:28.678Z,95532.53
2023-01-19T02:05:04.193Z,95522.47
2023-01-19T02:07:59.656Z,95520.13
2023-01-19T02:10:44.964Z,95528.78
2023-01-19T02:13:21.328Z,95528.66
2023-01-19T02:15:50.107Z,95531.13
2023-01-19T02:18:17.103Z,95538.16
2023-01-19T02:20:52.136Z,95535.06
2023-01-19T02:23:42.652Z,95531.09
2023-01-19T02:26:13.047Z,95538.38
2023-01-19T02:28:44.551Z,95544.47
2023-01-19T02:31:11.418Z,95538.50
2023-01-19T02:33:37.890Z,95538.56
2023-01-19T02:36:05.935Z,95534.41
2023-01-19T02:38:32.937Z,95529.38
2023-01-19T02:41:02.966Z,95535.34
2023-01-19T02:43:30.390Z,95546.16
2023-01-19T02:45:57.278Z,95549.66
2023-01-19T02:48:23.643Z,95545.25
2023-01-19T02:50:53.595Z,95558.38
2023-01-19T02:53:57.247Z,95552.53
2023-01-19T02:56:54.886Z,95555.66
2023-01-19T02:59:23.871Z,95558.09
2023-01-19T03:02:08.861Z,95559.91
2023-01-19T03:04:45.696Z,95553.13
2023-01-19T03:07:24.629Z,95560.84
2023-01-19T03:10:08.080Z,95561.75
2023-01-19T03:12:50.463Z,95568.03
2023-01-19T03:15:25.848Z,95567.28
2023-01-19T03:17:53.819Z,95571.84
2023-01-19T03:20:24.610Z,95570.84
2023-01-19T03:23:00.497Z,95570.84
2023-01-19T03:25:31.043Z,95566.72
2023-01-19T03:27:57.915Z,95561.41
2023-01-19T03:30:29.219Z,95562.88
2023-01-19T03:33:05.034Z,95571.47
2023-01-19T03:35:35.534Z,95564.25
2023-01-19T03:38:06.063Z,95556.97
2023-01-19T03:40:34.227Z,95556.97
2023-01-19T03:43:02.518Z,95566.44
2023-01-19T03:45:33.344Z,95564.13
2023-01-19T03:47:59.838Z,95579.19
2023-01-19T03:50:29.516Z,95576.63
2023-01-19T03:53:15.959Z,95571.44
2023-01-19T03:55:46.443Z,95580.44
2023-01-19T03:58:13.200Z,95581.19
2023-01-19T04:00:39.882Z,95582.63
2023-01-19T04:03:11.772Z,95579.00
2023-01-19T04:05:39.399Z,95579.81
2023-01-19T04:08:08.556Z,95586.22
2023-01-19T04:10:34.884Z,95585.94
2023-01-19T04:13:02.213Z,95584.16
2023-01-19T04:15:29.613Z,95587.22
2023-01-19T04:18:01.748Z,95578.13
2023-01-19T04:20:29.126Z,95577.78
2023-01-19T04:22:59.518Z,95572.94
2023-01-19T04:25:26.427Z,95583.66
2023-01-19T04:27:53.292Z,95584.56
2023-01-19T04:30:19.906Z,95588.91
2023-01-19T04:32:46.770Z,95591.53
2023-01-19T04:35:13.147Z,95590.34
2023-01-19T04:37:40.017Z,95588.28
2023-01-19T04:40:07.160Z,95590.78
2023-01-19T04:42:33.472Z,95595.91
2023-01-19T04:44:59.789Z,95603.16
2023-01-19T04:47:26.167Z,95595.81
2023-01-19T04:49:52.529Z,95598.53
2023-01-19T04:52:19.379Z,95604.00
2023-01-19T04:54:45.714Z,95606.13
2023-01-19T04:57:12.070Z,95607.47
2023-01-19T04:59:38.401Z,95610.13
2023-01-19T05:02:04.771Z,95615.44
2023-01-19T05:04:31.103Z,95616.53
2023-01-19T05:06:58.218Z,95615.09
2023-01-19T05:09:25.779Z,95616.34
2023-01-19T05:11:52.137Z,95616.34
2023-01-19T05:14:18.783Z,95616.28
2023-01-19T05:16:45.153Z,95620.16
2023-01-19T05:19:11.523Z,95630.59
2023-01-19T05:21:37.939Z,95629.78
2023-01-19T05:24:04.368Z,95632.69
2023-01-19T05:26:30.713Z,95624.31
2023-01-19T05:28:57.187Z,95634.72
2023-01-19T05:31:23.616Z,95625.72
2023-01-19T05:33:50.064Z,95623.34
2023-01-19T05:36:16.435Z,95631.47
2023-01-19T05:38:42.763Z,95623.94
2023-01-19T05:41:09.100Z,95638.28
2023-01-19T05:43:35.411Z,95643.72
2023-01-19T05:46:04.586Z,95633.75
2023-01-19T05:48:31.594Z,95632.63
2023-01-19T05:50:59.488Z,95640.44
2023-01-19T05:53:26.149Z,95645.53
2023-01-19T05:55:52.509Z,95640.00
2023-01-19T05:58:19.071Z,95643.28
2023-01-19T06:00:45.464Z,95648.44
2023-01-19T06:03:12.437Z,95638.16
2023-01-19T06:05:39.395Z,95642.13
2023-01-19T06:08:05.981Z,95653.41
2023-01-19T06:10:32.339Z,95650.56
2023-01-19T06:12:59.395Z,95648.25
2023-01-19T06:15:25.965Z,95658.25
2023-01-19T06:17:52.306Z,95659.19
2023-01-19T06:20:18.656Z,95652.72
2023-01-19T06:22:44.989Z,95652.38
2023-01-19T06:25:11.826Z,95661.84
2023-01-19T06:27:39.713Z,95668.88
2023-01-19T06:30:06.758Z,95672.34
2023-01-19T06:32:33.096Z,95667.25
2023-01-19T06:34:59.425Z,95673.09
2023-01-19T06:37:27.167Z,95674.25
2023-01-19T06:39:53.724Z,95675.06
2023-01-19T06:42:20.061Z,95674.94
2023-01-19T06:44:47.894Z,95681.41
2023-01-19T06:47:16.379Z,95677.59
2023-01-19T06:49:43.427Z,95677.72
2023-01-19T06:52:11.367Z,95683.72
2023-01-19T06:54:37.850Z,95684.06
2023-01-19T06:57:04.484Z,95683.06
2023-01-19T06:59:31.660Z,95686.41
2023-01-19T07:01:58.919Z,95693.81
2023-01-19T07:04:26.963Z,95698.88
2023-01-19T07:06:53.428Z,95704.19
2023-01-19T07:09:20.445Z,95708.09
2023-01-19T07:11:48.065Z,95707.41
2023-01-19T07:14:15.395Z,95712.06
2023-01-19T07:16:41.827Z,95706.91
2023-01-19T07:19:10.550Z,95711.88
2023-01-19T07:21:40.065Z,95711.16
2023-01-19T07:24:06.605Z,95708.50
2023-01-19T07:26:32.998Z,95713.06
2023-01-19T07:28:59.364Z,95708.03
2023-01-19T07:31:25.929Z,95709.75
2023-01-19T07:33:52.391Z,95717.88
2023-01-19T07:36:18.740Z,95716.72
2023-01-19T07:38:45.091Z,95721.69
2023-01-19T07:41:11.923Z,95727.31
2023-01-19T07:43:38.283Z,95734.59
2023-01-19T07:46:06.550Z,95734.69
2023-01-19T07:48:33.159Z,95732.97
2023-01-19T07:51:01.237Z,95731.22
2023-01-19T07:53:27.621Z,95738.16
2023-01-19T07:55:56.343Z,95732.47
2023-01-19T07:58:24.476Z,95734.53
2023-01-19T08:00:50.862Z,95743.31
2023-01-19T08:03:17.744Z,95742.88
2023-01-19T08:05:45.236Z,95746.44
2023-01-19T08:08:12.413Z,95753.66
2023-01-19T08:10:38.733Z,95756.97
2023-01-19T08:13:05.111Z,95756.09
2023-01-19T08:15:31.639Z,95766.06
2023-01-19T08:18:00.470Z,95768.28
2023-01-19T08:20:28.853Z,95772.81
2023-01-19T08:22:59.994Z,95769.88
2023-01-19T08:25:46.966Z,95765.41
2023-01-19T08:28:15.617Z,95773.16
2023-01-19T08:30:44.300Z,95757.41
2023-01-19T08:33:13.962Z,95766.13
2023-01-19T08:35:42.542Z,95768.44
2023-01-19T08:38:10.307Z,95772.22
2023-01-19T08:40:39.059Z,95773.63
2023-01-19T08:43:08.923Z,95772.53
2023-01-19T08:45:37.127Z,95766.97
2023-01-19T08:48:06.120Z,95773.69
2023-01-19T08:50:33.782Z,95771.56
2023-01-19T08:53:02.352Z,95767.59
2023-01-19T08:55:29.948Z,95771.75
2023-01-19T08:57:57.867Z,95770.66
2023-01-19T09:00:27.417Z,95774.97
2023-01-19T09:02:54.692Z,95775.06
2023-01-19T09:05:21.141Z,95768.34
2023-01-19T09:07:48.327Z,95768.00
2023-01-19T09:10:15.684Z,95772.34
2023-01-19T09:12:43.396Z,95774.94
2023-01-19T09:15:10.835Z,95778.84
2023-01-19T09:17:37.370Z,95776.03
2023-01-19T09:20:05.812Z,95769.41
2023-01-19T09:22:33.334Z,95770.41
2023-01-19T09:25:00.229Z,95768.47
2023-01-19T09:27:26.553Z,95768.50
2023-01-19T09:29:53.980Z,95780.25
2023-01-19T09:32:21.247Z,95770.41
2023-01-19T09:34:47.870Z,95773.03
2023-01-19T09:37:16.013Z,95768.25
2023-01-19T09:39:42.530Z,95780.31
2023-01-19T09:42:23.316Z,95774.75
2023-01-19T09:44:50.928Z,95770.06
2023-01-19T09:47:23.392Z,95766.44
2023-01-19T09:49:58.257Z,95769.81
2023-01-19T09:52:24.740Z,95770.75
2023-01-19T09:54:56.533Z,95773.34
2023-01-19T09:57:25.009Z,95772.09
2023-01-19T09:59:51.743Z,95771.84
2023-01-19T10:02:20.761Z,95766.88
2023-01-19T10:05:22.588Z,95765.38
2023-01-19T10:07:58.600Z,95760.13
2023-01-19T10:10:27.925Z,95752.13
2023-01-19T10:13:21.821Z,95745.06
2023-01-19T10:16:14.266Z,95742.81
2023-01-19T10:18:51.404Z,95751.22
2023-01-19T10:21:22.549Z,95742.91
2023-01-19T10:24:14.278Z,95745.03
2023-01-19T10:26:45.339Z,95747.81
2023-01-19T10:29:21.012Z,95744.75
2023-01-19T10:31:51.674Z,95747.88
2023-01-19T10:34:23.491Z,95746.97
2023-01-19T10:36:58.934Z,95747.13
2023-01-19T10:39:25.463Z,95735.09
2023-01-19T10:41:53.413Z,95741.63
2023-01-19T10:44:28.889Z,95737.50
2023-01-19T10:46:58.330Z,95735.09
2023-01-19T10:49:27.650Z,95743.56
2023-01-19T10:51:56.033Z,95728.75
2023-01-19T10:54:23.944Z,95733.81
2023-01-19T10:56:57.017Z,95732.78
2023-01-19T10:59:50.920Z,95729.47
2023-01-19T11:02:21.119Z,95730.38
2023-01-19T11:04:51.113Z,95728.47
2023-01-19T11:07:23.729Z,95728.66
2023-01-19T11:10:22.354Z,95724.47
2023-01-19T11:12:56.987Z,95729.13
2023-01-19T11:15:48.707Z,95732.19
2023-01-19T11:18:29.809Z,95735.78
2023-01-19T11:20:59.369Z,95729.91
2023-01-19T11:23:28.866Z,95729.75
2023-01-19T11:26:00.354Z,95735.13
2023-01-19T11:28:40.340Z,95718.91
2023-01-19T11:31:15.976Z,95734.59
2023-01-19T11:33:49.776Z,95730.84
2023-01-19T11:36:21.019Z,95718.25
2023-01-19T11:38:50.538Z,95719.53
2023-01-19T11:41:31.681Z,95723.78
2023-01-19T11:44:09.230Z,95724.47
2023-01-19T11:46:39.597Z,95714.19
2023-01-19T11:49:13.762Z,95719.34
2023-01-19T11:52:15.150Z,95720.31
2023-01-19T11:54:48.215Z,95717.31
2023-01-19T11:57:17.072Z,95715.53
2023-01-19T11:59:44.415Z,95706.88
2023-01-19T12:02:28.507Z,95717.94
2023-01-19T12:05:06.212Z,95717.53
2023-01-19T12:07:35.176Z,95709.53
2023-01-19T12:10:26.259Z,95719.06
2023-01-19T12:12:53.395Z,95715.72
2023-01-19T12:15:36.498Z,95711.53
2023-01-19T12:18:05.387Z,95713.75
2023-01-19T12:20:39.052Z,95705.53
2023-01-19T12:23:11.168Z,95706.50
2023-01-19T12:25:44.234Z,95711.97
2023-01-19T12:28:14.596Z,95706.59
2023-01-19T12:30:41.553Z,95703.88
2023-01-19T12:33:40.451Z,95715.28
2023-01-19T12:36:36.220Z,95698.75
2023-01-19T12:39:02.473Z,95697.88
2023-01-19T12:41:37.618Z,95702.56
2023-01-19T12:44:16.291Z,95696.44
2023-01-19T12:46:45.946Z,95698.91
2023-01-19T12:49:21.032Z,95699.34
2023-01-19T12:51:48.993Z,95694.09
2023-01-19T12:54:31.436Z,95692.53
2023-01-19T12:57:08.208Z,95689.47
2023-01-19T12:59:37.224Z,95686.44
2023-01-19T13:02:25.456Z,95691.50
2023-01-19T13:05:32.504Z,95687.16
2023-01-19T13:08:02.418Z,95680.47
2023-01-19T13:10:53.643Z,95686.09
2023-01-19T13:13:21.319Z,95684.41
2023-01-19T13:15:47.818Z,95684.41
2023-01-19T13:18:23.026Z,95677.38
2023-01-19T13:21:00.212Z,95685.28
2023-01-19T13:23:27.425Z,95676.91
2023-01-19T13:26:01.396Z,95678.91
2023-01-19T13:28:36.413Z,95673.47
2023-01-19T13:31:03.711Z,95677.19
2023-01-19T13:33:40.864Z,95669.75
2023-01-19T13:36:20.809Z,95668.50
2023-01-19T13:38:50.827Z,95672.38
2023-01-19T13:41:22.345Z,95669.81
2023-01-19T13:43:57.268Z,95672.44
2023-01-19T13:46:26.279Z,95670.22
2023-01-19T13:49:00.055Z,95671.56
2023-01-19T13:51:26.843Z,95673.38
2023-01-19T13:53:54.744Z,95673.47
2023-01-19T13:56:23.269Z,95671.69
2023-01-19T13:59:10.105Z,95666.75
2023-01-19T14:01:38.389Z,95669.81
2023-01-19T14:04:05.279Z,95665.59
2023-01-19T14:06:47.647Z,95670.59
2023-01-19T14:09:18.944Z,95668.00
2023-01-19T14:11:47.485Z,95670.84
2023-01-19T14:14:25.989Z,95672.47
2023-01-19T14:16:52.740Z,95666.47
2023-01-19T14:19:19.419Z,95668.44
2023-01-19T14:21:46.000Z,95667.56
2023-01-19T14:24:19.544Z,95669.47
2023-01-19T14:26:48.320Z,95662.16
2023-01-19T14:29:19.678Z,95665.69
2023-01-19T14:31:52.767Z,95659.63
2023-01-19T14:34:36.116Z,95660.03
2023-01-19T14:37:04.886Z,95656.03
2023-01-19T14:39:34.236Z,95655.16
2023-01-19T14:42:04.040Z,95658.41
2023-01-19T14:44:40.875Z,95667.00
2023-01-19T14:47:25.158Z,95660.28
2023-01-19T14:49:51.612Z,95660.97
2023-01-19T14:52:54.031Z,95661.53
2023-01-19T14:55:25.370Z,95659.81
2023-01-19T14:57:51.696Z,95667.75
2023-01-19T15:00:19.937Z,95658.94
2023-01-19T15:02:47.286Z,95665.81
2023-01-19T15:05:14.423Z,95659.47
2023-01-19T15:07:43.500Z,95666.09
2023-01-19T15:10:21.122Z,95662.88
2023-01-19T15:12:49.002Z,95670.09
2023-01-19T15:15:25.643Z,95671.44
2023-01-19T15:17:54.187Z,95671.88
2023-01-19T15:20:23.005Z,95669.03
2023-01-19T15:22:49.919Z,95673.94
2023-01-19T15:25:21.037Z,95676.75
2023-01-19T15:27:48.443Z,95671.69
2023-01-19T15:30:27.704Z,95677.69
2023-01-19T15:32:54.025Z,95667.75
2023-01-19T15:35:22.963Z,95666.28
2023-01-19T15:37:50.397Z,95656.78
2023-01-19T15:40:18.284Z,95660.72
2023-01-19T15:42:45.240Z,95659.28
2023-01-19T15:45:36.187Z,95667.53
2023-01-19T15:48:08.088Z,95658.84
2023-01-19T15:50:39.519Z,95654.91
2023-01-19T15:53:07.123Z,95661.13
2023-01-19T15:55:33.468Z,95667.44
2023-01-19T15:58:02.494Z,95663.13
2023-01-19T16:00:31.598Z,95670.63
2023-01-19T16:02:58.905Z,95661.94
2023-01-19T16:05:37.430Z,95658.94
2023-01-19T16:08:08.638Z,95658.25
2023-01-19T16:10:35.254Z,95661.84
2023-01-19T16:13:01.595Z,95663.00
2023-01-19T16:15:27.959Z,95656.50
2023-01-19T16:17:54.282Z,95656.19
2023-01-19T16:20:20.600Z,95654.09
2023-01-19T16:22:46.946Z,95660.94
2023-01-19T16:25:13.308Z,95658.88
2023-01-19T16:27:39.678Z,95658.25
2023-01-19T16:30:06.699Z,95661.94
2023-01-19T16:32:33.779Z,95655.78
2023-01-19T16:35:00.118Z,95656.28
2023-01-19T16:37:28.044Z,95658.25
2023-01-19T16:39:54.510Z,95659.09
2023-01-19T16:42:20.938Z,95654.00
2023-01-19T16:45:05.388Z,95654.53
2023-01-19T16:47:31.732Z,95657.81
2023-01-19T16:49:58.036Z,95652.25
2023-01-19T16:52:24.382Z,95655.84
2023-01-19T16:54:54.487Z,95661.09
2023-01-19T16:57:20.816Z,95658.44
2023-01-19T16:59:47.256Z,95655.13
2023-01-19T17:02:13.732Z,95653.44
2023-01-19T17:04:40.088Z,95659.41
2023-01-19T17:07:06.423Z,95652.00
2023-01-19T17:09:33.919Z,95660.28
2023-01-19T17:12:00.266Z,95651.19
2023-01-19T17:14:26.728Z,95646.63
2023-01-19T17:16:53.053Z,95648.53
2023-01-19T17:19:22.127Z,95654.75
2023-01-19T17:21:49.885Z,95647.31
2023-01-19T17:24:17.015Z,95649.78
2023-01-19T17:26:45.791Z,95649.41
2023-01-19T17:29:12.214Z,95644.38
2023-01-19T17:31:38.829Z,95639.88
2023-01-19T17:34:05.634Z,95645.13
2023-01-19T17:36:32.851Z,95640.81
2023-01-19T17:39:01.008Z,95643.19
2023-01-19T17:41:30.596Z,95641.59
2023-01-19T17:43:57.987Z,95643.94
2023-01-19T17:46:26.649Z,95635.69
2023-01-19T17:48:54.561Z,95639.75
2023-01-19T17:51:22.918Z,95645.63
2023-01-19T17:53:50.244Z,95634.28
2023-01-19T17:56:18.772Z,95636.13
2023-01-19T17:58:45.127Z,95633.66
2023-01-19T18:01:14.934Z,95631.59
2023-01-19T18:03:42.283Z,95634.66
2023-01-19T18:06:09.312Z,95632.31
2023-01-19T18:08:41.952Z,95631.03
2023-01-19T18:11:09.417Z,95631.88
2023-01-19T18:13:37.208Z,95633.75
2023-01-19T18:16:09.701Z,95627.75
2023-01-19T18:18:37.128Z,95629.19
2023-01-19T18:21:06.657Z,95622.22
2023-01-19T18:23:33.479Z,95630.06
2023-01-19T18:26:05.907Z,95631.47
2023-01-19T18:28:32.599Z,95628.34
2023-01-19T18:30:59.739Z,95621.91
2023-01-19T18:33:27.529Z,95619.59
2023-01-19T18:35:54.452Z,95617.94
2023-01-19T18:38:20.899Z,95617.00
2023-01-19T18:40:47.245Z,95626.84
2023-01-19T18:43:13.675Z,95616.75
2023-01-19T18:45:44.271Z,95613.81
2023-01-19T18:48:10.590Z,95618.28
2023-01-19T18:50:37.607Z,95611.78
2023-01-19T18:53:03.942Z,95613.63
2023-01-19T18:55:30.477Z,95614.25
2023-01-19T18:57:56.799Z,95611.78
2023-01-19T19:00:23.239Z,95609.63
2023-01-19T19:02:49.576Z,95617.72
2023-01-19T19:05:15.983Z,95615.19
2023-01-19T19:07:42.311Z,95617.31
2023-01-19T19:10:09.528Z,95615.19
2023-01-19T19:12:35.847Z,95612.72
2023-01-19T19:15:02.235Z,95609.13
2023-01-19T19:17:28.576Z,95609.47
2023-01-19T19:19:54.911Z,95604.16
2023-01-19T19:22:21.303Z,95608.47
2023-01-19T19:24:47.625Z,95610.97
2023-01-19T19:27:14.310Z,95610.03
2023-01-19T19:29:41.356Z,95603.75
2023-01-19T19:32:07.713Z,95603.53
2023-01-19T19:34:34.087Z,95612.94
2023-01-19T19:37:01.371Z,95605.41
2023-01-19T19:39:28.396Z,95614.63
2023-01-19T19:41:54.723Z,95610.63
2023-01-19T19:44:21.164Z,95617.97
2023-01-19T19:46:47.721Z,95616.63
2023-01-19T19:49:15.289Z,95615.81
2023-01-19T19:51:41.872Z,95620.59
2023-01-19T19:54:08.835Z,95613.88
2023-01-19T19:56:35.201Z,95619.97
2023-01-19T19:59:01.559Z,95616.63
2023-01-19T20:01:32.898Z,95620.72
2023-01-19T20:04:07.793Z,95619.78
2023-01-19T20:06:38.611Z,95619.38
2023-01-19T20:09:06.529Z,95627.09
2023-01-19T20:11:33.323Z,95621.34
2023-01-19T20:13:59.835Z,95625.28
2023-01-19T20:16:26.410Z,95619.97
2023-01-19T20:18:54.208Z,95624.69
2023-01-19T20:21:26.909Z,95626.09
2023-01-19T20:23:55.097Z,95625.78
2023-01-19T20:26:25.108Z,95627.44
2023-01-19T20:28:51.944Z,95625.56
2023-01-19T20:31:21.479Z,95631.88
2023-01-19T20:33:49.795Z,95624.84
2023-01-19T20:36:17.012Z,95622.50
2023-01-19T20:38:43.720Z,95625.47
2023-01-19T20:41:11.695Z,95627.03
2023-01-19T20:43:38.543Z,95630.13
2023-01-19T20:46:05.560Z,95627.34
2023-01-19T20:48:32.197Z,95629.94
2023-01-19T20:51:04.371Z,95636.34
2023-01-19T20:53:31.542Z,95632.31
2023-01-19T20:55:57.979Z,95637.59
2023-01-19T20:58:24.424Z,95630.75
2023-01-19T21:00:50.928Z,95644.41
2023-01-19T21:03:17.471Z,95643.06
2023-01-19T21:05:46.571Z,95646.69
2023-01-19T21:08:14.653Z,95649.16
2023-01-19T21:10:41.700Z,95650.91
2023-01-19T21:13:08.192Z,95652.25
2023-01-19T21:15:34.745Z,95652.44
2023-01-19T21:18:01.759Z,95657.41
2023-01-19T21:20:32.861Z,95658.44
2023-01-19T21:22:59.243Z,95663.00
2023-01-19T21:25:25.564Z,95658.00
2023-01-19T21:27:51.872Z,95671.44
2023-01-19T21:30:18.502Z,95664.22
2023-01-19T21:32:44.914Z,95660.09
2023-01-19T21:35:11.517Z,95660.09
2023-01-19T21:37:38.064Z,95664.53
2023-01-19T21:40:05.012Z,95661.09
2023-01-19T21:42:31.394Z,95668.75
2023-01-19T21:44:57.780Z,95673.88
2023-01-19T21:47:24.125Z,95672.13
2023-01-19T21:49:50.439Z,95671.41
2023-01-19T21:52:16.807Z,95667.25
2023-01-19T21:54:43.335Z,95665.44
2023-01-19T21:57:09.751Z,95673.84
2023-01-19T21:59:36.087Z,95673.84
2023-01-19T22:02:02.574Z,95680.22
2023-01-19T22:04:29.694Z,95686.19
2023-01-19T22:06:56.026Z,95693.47
2023-01-19T22:09:22.420Z,95688.06
2023-01-19T22:11:48.742Z,95690.25
2023-01-19T22:14:15.077Z,95696.53
2023-01-19T22:16:41.471Z,95695.44
2023-01-19T22:19:12.799Z,95689.38
2023-01-19T22:21:39.871Z,95691.34
2023-01-19T22:24:06.721Z,95693.56
2023-01-19T22:26:34.085Z,95691.19
2023-01-19T22:29:01.585Z,95690.47
2023-01-19T22:31:29.377Z,95699.84
2023-01-19T22:33:56.627Z,95703.53
2023-01-19T22:36:25.695Z,95705.19
2023-01-19T22:38:54.463Z,95695.66
2023-01-19T22:41:23.543Z,95694.03
2023-01-19T22:43:52.625Z,95695.53
2023-01-19T22:46:20.568Z,95705.09
2023-01-19T22:48:48.300Z,95707.06
2023-01-19T22:51:15.047Z,95710.00
2023-01-19T22:53:41.394Z,95707.50
2023-01-19T22:56:32.329Z,95711.00
2023-01-19T22:58:59.471Z,95716.38
2023-01-19T23:01:37.615Z,95714.00
2023-01-19T23:04:05.324Z,95710.50
2023-01-19T23:06:34.420Z,95717.13
2023-01-19T23:09:04.780Z,95720.53
2023-01-19T23:11:39.729Z,95722.47
2023-01-19T23:14:07.911Z,95727.16
2023-01-19T23:16:34.782Z,95726.25
2023-01-19T23:19:01.365Z,95718.78
2023-01-19T23:21:30.340Z,95730.25
2023-01-19T23:24:02.108Z,95728.91
2023-01-19T23:26:30.671Z,95733.84
2023-01-19T23:28:59.370Z,95734.69
2023-01-19T23:31:28.340Z,95731.03
2023-01-19T23:33:57.326Z,95736.09
2023-01-19T23:36:25.990Z,95738.97
2023-01-19T23:38:54.474Z,95744.03
2023-01-19T23:41:21.659Z,95739.44
2023-01-19T23:43:48.503Z,95749.72
2023-01-19T23:46:16.544Z,95748.81
2023-01-19T23:48:43.377Z,95740.34
2023-01-19T23:51:12.391Z,95751.59
2023-01-19T23:53:38.809Z,95746.50
2023-01-19T23:56:32.699Z,95752.13
2023-01-19T23:59:11.582Z,95749.63
